sensor_id;sensor_type;location;lat;lon;timestamp;P1;durP1;ratioP1;P2;durP2;ratioP2
64894;SDS011;51588;53.702;10.208;2024-02-23T00:01:03;2.70;;;1.33;;
64894;SDS011;51588;53.702;10.208;2024-02-23T00:03:33;1.93;;;1.00;;
64894;SDS011;51588;53.702;10.208;2024-02-23T00:06:07;1.17;;;0.90;;
64894;SDS011;51588;53.702;10.208;2024-02-23T00:08:35;1.47;;;0.80;;
64894;SDS011;51588;53.702;10.208;2024-02-23T00:11:02;1.33;;;1.00;;
64894;SDS011;51588;53.702;10.208;2024-02-23T00:13:29;1.00;;;0.90;;
64894;SDS011;51588;53.702;10.208;2024-02-23T00:15:59;1.33;;;1.00;;
64894;SDS011;51588;53.702;10.208;2024-02-23T00:18:26;1.50;;;0.87;;
64894;SDS011;51588;53.702;10.208;2024-02-23T00:20:52;1.53;;;0.93;;
64894;SDS011;51588;53.702;10.208;2024-02-23T00:23:19;1.30;;;0.87;;
64894;SDS011;51588;53.702;10.208;2024-02-23T00:25:47;1.30;;;1.03;;
64894;SDS011;51588;53.702;10.208;2024-02-23T00:28:13;1.40;;;1.00;;
64894;SDS011;51588;53.702;10.208;2024-02-23T00:30:40;1.30;;;0.93;;
64894;SDS011;51588;53.702;10.208;2024-02-23T00:33:06;4.97;;;1.17;;
64894;SDS011;51588;53.702;10.208;2024-02-23T00:35:34;1.20;;;1.10;;
64894;SDS011;51588;53.702;10.208;2024-02-23T00:38:00;1.20;;;0.83;;
64894;SDS011;51588;53.702;10.208;2024-02-23T00:40:27;1.10;;;1.00;;
64894;SDS011;51588;53.702;10.208;2024-02-23T00:42:55;2.80;;;1.00;;
64894;SDS011;51588;53.702;10.208;2024-02-23T00:45:21;1.87;;;1.00;;
64894;SDS011;51588;53.702;10.208;2024-02-23T00:47:48;1.70;;;1.00;;
64894;SDS011;51588;53.702;10.208;2024-02-23T00:50:14;0.80;;;0.70;;
64894;SDS011;51588;53.702;10.208;2024-02-23T00:52:44;1.47;;;0.90;;
64894;SDS011;51588;53.702;10.208;2024-02-23T00:55:11;1.10;;;0.83;;
64894;SDS011;51588;53.702;10.208;2024-02-23T00:57:43;2.40;;;1.00;;
64894;SDS011;51588;53.702;10.208;2024-02-23T01:00:12;1.00;;;0.83;;
64894;SDS011;51588;53.702;10.208;2024-02-23T01:02:39;2.03;;;1.10;;
64894;SDS011;51588;53.702;10.208;2024-02-23T01:05:06;0.90;;;0.80;;
64894;SDS011;51588;53.702;10.208;2024-02-23T01:07:34;0.80;;;0.70;;
64894;SDS011;51588;53.702;10.208;2024-02-23T01:10:01;0.93;;;0.83;;
64894;SDS011;51588;53.702;10.208;2024-02-23T01:12:28;3.97;;;1.00;;
64894;SDS011;51588;53.702;10.208;2024-02-23T01:14:55;1.10;;;0.90;;
64894;SDS011;51588;53.702;10.208;2024-02-23T01:17:23;1.30;;;1.00;;
64894;SDS011;51588;53.702;10.208;2024-02-23T01:19:49;1.10;;;0.90;;
64894;SDS011;51588;53.702;10.208;2024-02-23T01:22:18;0.90;;;0.80;;
64894;SDS011;51588;53.702;10.208;2024-02-23T01:24:45;1.37;;;0.90;;
64894;SDS011;51588;53.702;10.208;2024-02-23T01:27:12;0.90;;;0.70;;
64894;SDS011;51588;53.702;10.208;2024-02-23T01:29:38;2.90;;;0.80;;
64894;SDS011;51588;53.702;10.208;2024-02-23T01:32:08;0.90;;;0.80;;
64894;SDS011;51588;53.702;10.208;2024-02-23T01:34:36;1.10;;;0.70;;
64894;SDS011;51588;53.702;10.208;2024-02-23T01:37:02;0.90;;;0.80;;
64894;SDS011;51588;53.702;10.208;2024-02-23T01:39:29;1.00;;;0.70;;
64894;SDS011;51588;53.702;10.208;2024-02-23T01:41:56;1.10;;;0.80;;
64894;SDS011;51588;53.702;10.208;2024-02-23T01:44:23;1.13;;;0.83;;
64894;SDS011;51588;53.702;10.208;2024-02-23T01:46:50;1.30;;;0.90;;
64894;SDS011;51588;53.702;10.208;2024-02-23T01:49:16;0.90;;;0.70;;
64894;SDS011;51588;53.702;10.208;2024-02-23T01:51:45;0.90;;;0.70;;
64894;SDS011;51588;53.702;10.208;2024-02-23T01:54:12;1.13;;;0.80;;
64894;SDS011;51588;53.702;10.208;2024-02-23T01:56:38;0.90;;;0.70;;
64894;SDS011;51588;53.702;10.208;2024-02-23T01:59:05;1.20;;;0.60;;
64894;SDS011;51588;53.702;10.208;2024-02-23T02:01:32;0.90;;;0.70;;
64894;SDS011;51588;53.702;10.208;2024-02-23T02:03:59;0.87;;;0.70;;
64894;SDS011;51588;53.702;10.208;2024-02-23T02:06:25;0.80;;;0.70;;
64894;SDS011;51588;53.702;10.208;2024-02-23T02:08:53;1.73;;;0.93;;
64894;SDS011;51588;53.702;10.208;2024-02-23T02:11:20;0.90;;;0.70;;
64894;SDS011;51588;53.702;10.208;2024-02-23T02:13:47;0.97;;;0.80;;
64894;SDS011;51588;53.702;10.208;2024-02-23T02:16:13;1.30;;;0.70;;
64894;SDS011;51588;53.702;10.208;2024-02-23T02:18:40;1.07;;;0.70;;
64894;SDS011;51588;53.702;10.208;2024-02-23T02:21:07;0.90;;;0.70;;
64894;SDS011;51588;53.702;10.208;2024-02-23T02:23:33;2.00;;;0.80;;
64894;SDS011;51588;53.702;10.208;2024-02-23T02:26:03;1.23;;;0.67;;
64894;SDS011;51588;53.702;10.208;2024-02-23T02:28:30;1.10;;;0.70;;
64894;SDS011;51588;53.702;10.208;2024-02-23T02:30:57;3.63;;;0.70;;
64894;SDS011;51588;53.702;10.208;2024-02-23T02:33:24;0.80;;;0.70;;
64894;SDS011;51588;53.702;10.208;2024-02-23T02:35:50;1.00;;;0.70;;
64894;SDS011;51588;53.702;10.208;2024-02-23T02:38:17;1.10;;;0.70;;
64894;SDS011;51588;53.702;10.208;2024-02-23T02:40:43;2.13;;;0.70;;
64894;SDS011;51588;53.702;10.208;2024-02-23T02:43:11;0.87;;;0.70;;
64894;SDS011;51588;53.702;10.208;2024-02-23T02:45:38;1.17;;;0.77;;
64894;SDS011;51588;53.702;10.208;2024-02-23T02:48:05;0.80;;;0.60;;
64894;SDS011;51588;53.702;10.208;2024-02-23T02:50:32;0.80;;;0.60;;
64894;SDS011;51588;53.702;10.208;2024-02-23T02:52:59;0.80;;;0.70;;
64894;SDS011;51588;53.702;10.208;2024-02-23T02:55:25;0.80;;;0.60;;
64894;SDS011;51588;53.702;10.208;2024-02-23T02:57:52;1.10;;;0.70;;
64894;SDS011;51588;53.702;10.208;2024-02-23T03:00:20;0.70;;;0.60;;
64894;SDS011;51588;53.702;10.208;2024-02-23T03:02:46;0.70;;;0.60;;
64894;SDS011;51588;53.702;10.208;2024-02-23T03:05:13;0.97;;;0.60;;
64894;SDS011;51588;53.702;10.208;2024-02-23T03:07:40;1.10;;;0.70;;
64894;SDS011;51588;53.702;10.208;2024-02-23T03:10:06;1.00;;;0.67;;
64894;SDS011;51588;53.702;10.208;2024-02-23T03:12:37;1.40;;;0.67;;
64894;SDS011;51588;53.702;10.208;2024-02-23T03:15:04;1.00;;;0.70;;
64894;SDS011;51588;53.702;10.208;2024-02-23T03:17:36;0.80;;;0.60;;
64894;SDS011;51588;53.702;10.208;2024-02-23T03:20:03;0.80;;;0.60;;
64894;SDS011;51588;53.702;10.208;2024-02-23T03:22:33;1.17;;;0.60;;
64894;SDS011;51588;53.702;10.208;2024-02-23T03:25:03;0.80;;;0.60;;
64894;SDS011;51588;53.702;10.208;2024-02-23T03:27:33;0.80;;;0.60;;
64894;SDS011;51588;53.702;10.208;2024-02-23T03:30:01;0.90;;;0.60;;
64894;SDS011;51588;53.702;10.208;2024-02-23T03:32:28;1.00;;;0.70;;
64894;SDS011;51588;53.702;10.208;2024-02-23T03:34:57;0.90;;;0.70;;
64894;SDS011;51588;53.702;10.208;2024-02-23T03:37:27;0.80;;;0.60;;
64894;SDS011;51588;53.702;10.208;2024-02-23T03:39:53;0.80;;;0.70;;
64894;SDS011;51588;53.702;10.208;2024-02-23T03:42:20;1.20;;;0.63;;
64894;SDS011;51588;53.702;10.208;2024-02-23T03:44:46;0.83;;;0.60;;
64894;SDS011;51588;53.702;10.208;2024-02-23T03:47:21;0.80;;;0.70;;
64894;SDS011;51588;53.702;10.208;2024-02-23T03:49:48;0.80;;;0.60;;
64894;SDS011;51588;53.702;10.208;2024-02-23T03:52:18;1.10;;;0.70;;
64894;SDS011;51588;53.702;10.208;2024-02-23T03:54:45;0.70;;;0.60;;
64894;SDS011;51588;53.702;10.208;2024-02-23T03:57:20;1.40;;;0.67;;
64894;SDS011;51588;53.702;10.208;2024-02-23T03:59:52;0.70;;;0.60;;
64894;SDS011;51588;53.702;10.208;2024-02-23T04:02:22;1.00;;;0.57;;
64894;SDS011;51588;53.702;10.208;2024-02-23T04:04:51;0.70;;;0.60;;
64894;SDS011;51588;53.702;10.208;2024-02-23T04:07:20;1.00;;;0.63;;
64894;SDS011;51588;53.702;10.208;2024-02-23T04:09:47;0.80;;;0.60;;
64894;SDS011;51588;53.702;10.208;2024-02-23T04:12:17;0.90;;;0.70;;
64894;SDS011;51588;53.702;10.208;2024-02-23T04:14:44;0.80;;;0.60;;
64894;SDS011;51588;53.702;10.208;2024-02-23T04:17:12;0.80;;;0.63;;
64894;SDS011;51588;53.702;10.208;2024-02-23T04:19:39;1.03;;;0.80;;
64894;SDS011;51588;53.702;10.208;2024-02-23T04:22:06;1.40;;;0.70;;
64894;SDS011;51588;53.702;10.208;2024-02-23T04:24:35;1.10;;;0.60;;
64894;SDS011;51588;53.702;10.208;2024-02-23T04:27:02;0.80;;;0.60;;
64894;SDS011;51588;53.702;10.208;2024-02-23T04:29:29;1.10;;;0.70;;
64894;SDS011;51588;53.702;10.208;2024-02-23T04:31:55;1.03;;;0.70;;
64894;SDS011;51588;53.702;10.208;2024-02-23T04:34:22;0.90;;;0.60;;
64894;SDS011;51588;53.702;10.208;2024-02-23T04:36:51;0.73;;;0.60;;
64894;SDS011;51588;53.702;10.208;2024-02-23T04:39:20;0.80;;;0.60;;
64894;SDS011;51588;53.702;10.208;2024-02-23T04:41:57;0.80;;;0.67;;
64894;SDS011;51588;53.702;10.208;2024-02-23T04:44:23;1.10;;;0.63;;
64894;SDS011;51588;53.702;10.208;2024-02-23T04:46:52;0.90;;;0.60;;
64894;SDS011;51588;53.702;10.208;2024-02-23T04:49:19;1.27;;;0.70;;
64894;SDS011;51588;53.702;10.208;2024-02-23T04:51:45;0.90;;;0.70;;
64894;SDS011;51588;53.702;10.208;2024-02-23T04:54:12;0.90;;;0.70;;
64894;SDS011;51588;53.702;10.208;2024-02-23T04:56:38;1.40;;;0.80;;
64894;SDS011;51588;53.702;10.208;2024-02-23T04:59:07;0.80;;;0.60;;
64894;SDS011;51588;53.702;10.208;2024-02-23T05:01:34;0.80;;;0.60;;
64894;SDS011;51588;53.702;10.208;2024-02-23T05:04:02;1.53;;;0.63;;
64894;SDS011;51588;53.702;10.208;2024-02-23T05:06:29;1.23;;;0.80;;
64894;SDS011;51588;53.702;10.208;2024-02-23T05:08:58;4.73;;;0.80;;
64894;SDS011;51588;53.702;10.208;2024-02-23T05:11:24;1.10;;;0.70;;
64894;SDS011;51588;53.702;10.208;2024-02-23T05:13:51;1.30;;;0.80;;
64894;SDS011;51588;53.702;10.208;2024-02-23T05:16:26;1.30;;;0.70;;
64894;SDS011;51588;53.702;10.208;2024-02-23T05:18:53;0.90;;;0.70;;
64894;SDS011;51588;53.702;10.208;2024-02-23T05:21:25;1.03;;;0.70;;
64894;SDS011;51588;53.702;10.208;2024-02-23T05:23:55;1.67;;;0.80;;
64894;SDS011;51588;53.702;10.208;2024-02-23T05:26:25;1.07;;;0.60;;
64894;SDS011;51588;53.702;10.208;2024-02-23T05:29:01;1.10;;;0.63;;
64894;SDS011;51588;53.702;10.208;2024-02-23T05:31:44;1.00;;;0.70;;
64894;SDS011;51588;53.702;10.208;2024-02-23T05:34:12;1.00;;;0.60;;
64894;SDS011;51588;53.702;10.208;2024-02-23T05:36:39;1.03;;;0.70;;
64894;SDS011;51588;53.702;10.208;2024-02-23T05:39:06;1.13;;;0.67;;
64894;SDS011;51588;53.702;10.208;2024-02-23T05:41:37;1.20;;;0.80;;
64894;SDS011;51588;53.702;10.208;2024-02-23T05:44:04;1.47;;;0.70;;
64894;SDS011;51588;53.702;10.208;2024-02-23T05:46:34;1.53;;;0.70;;
64894;SDS011;51588;53.702;10.208;2024-02-23T05:49:02;3.87;;;0.80;;
64894;SDS011;51588;53.702;10.208;2024-02-23T05:51:36;1.03;;;0.70;;
64894;SDS011;51588;53.702;10.208;2024-02-23T05:54:02;2.53;;;1.00;;
64894;SDS011;51588;53.702;10.208;2024-02-23T05:56:38;3.97;;;1.10;;
64894;SDS011;51588;53.702;10.208;2024-02-23T05:59:05;5.63;;;1.43;;
64894;SDS011;51588;53.702;10.208;2024-02-23T06:01:32;3.67;;;1.10;;
64894;SDS011;51588;53.702;10.208;2024-02-23T06:04:03;6.17;;;1.37;;
64894;SDS011;51588;53.702;10.208;2024-02-23T06:06:30;3.40;;;1.30;;
64894;SDS011;51588;53.702;10.208;2024-02-23T06:08:57;2.83;;;1.10;;
64894;SDS011;51588;53.702;10.208;2024-02-23T06:11:25;5.70;;;1.40;;
64894;SDS011;51588;53.702;10.208;2024-02-23T06:13:53;4.33;;;1.73;;
64894;SDS011;51588;53.702;10.208;2024-02-23T06:16:20;10.53;;;2.30;;
64894;SDS011;51588;53.702;10.208;2024-02-23T06:18:47;12.77;;;3.00;;
64894;SDS011;51588;53.702;10.208;2024-02-23T06:21:17;9.40;;;2.13;;
64894;SDS011;51588;53.702;10.208;2024-02-23T06:23:44;12.03;;;2.40;;
64894;SDS011;51588;53.702;10.208;2024-02-23T06:26:11;9.80;;;2.13;;
64894;SDS011;51588;53.702;10.208;2024-02-23T06:28:38;4.83;;;2.13;;
64894;SDS011;51588;53.702;10.208;2024-02-23T06:31:06;9.27;;;2.50;;
64894;SDS011;51588;53.702;10.208;2024-02-23T06:33:33;5.50;;;2.00;;
64894;SDS011;51588;53.702;10.208;2024-02-23T06:36:00;4.90;;;1.90;;
64894;SDS011;51588;53.702;10.208;2024-02-23T06:38:38;6.33;;;2.17;;
64894;SDS011;51588;53.702;10.208;2024-02-23T06:41:04;7.83;;;1.83;;
64894;SDS011;51588;53.702;10.208;2024-02-23T06:43:33;7.50;;;1.97;;
64894;SDS011;51588;53.702;10.208;2024-02-23T06:46:03;7.53;;;2.03;;
64894;SDS011;51588;53.702;10.208;2024-02-23T06:48:31;8.63;;;1.60;;
64894;SDS011;51588;53.702;10.208;2024-02-23T06:50:57;4.53;;;1.70;;
64894;SDS011;51588;53.702;10.208;2024-02-23T06:53:24;4.80;;;1.73;;
64894;SDS011;51588;53.702;10.208;2024-02-23T06:55:52;4.70;;;1.50;;
64894;SDS011;51588;53.702;10.208;2024-02-23T06:58:18;5.60;;;1.67;;
64894;SDS011;51588;53.702;10.208;2024-02-23T07:00:45;4.27;;;1.63;;
64894;SDS011;51588;53.702;10.208;2024-02-23T07:03:12;3.90;;;1.50;;
64894;SDS011;51588;53.702;10.208;2024-02-23T07:05:39;5.87;;;1.63;;
64894;SDS011;51588;53.702;10.208;2024-02-23T07:08:07;3.10;;;1.30;;
64894;SDS011;51588;53.702;10.208;2024-02-23T07:10:36;3.10;;;1.40;;
64894;SDS011;51588;53.702;10.208;2024-02-23T07:13:04;2.93;;;1.63;;
64894;SDS011;51588;53.702;10.208;2024-02-23T07:15:32;3.80;;;1.13;;
64894;SDS011;51588;53.702;10.208;2024-02-23T07:17:58;3.03;;;1.57;;
64894;SDS011;51588;53.702;10.208;2024-02-23T07:20:25;3.67;;;1.20;;
64894;SDS011;51588;53.702;10.208;2024-02-23T07:22:52;5.13;;;1.50;;
64894;SDS011;51588;53.702;10.208;2024-02-23T07:25:18;6.20;;;1.23;;
64894;SDS011;51588;53.702;10.208;2024-02-23T07:27:52;3.40;;;1.47;;
64894;SDS011;51588;53.702;10.208;2024-02-23T07:30:28;5.33;;;1.77;;
64894;SDS011;51588;53.702;10.208;2024-02-23T07:33:01;2.70;;;1.30;;
64894;SDS011;51588;53.702;10.208;2024-02-23T07:35:30;4.07;;;1.33;;
64894;SDS011;51588;53.702;10.208;2024-02-23T07:38:00;3.70;;;1.80;;
64894;SDS011;51588;53.702;10.208;2024-02-23T07:40:26;3.57;;;1.10;;
64894;SDS011;51588;53.702;10.208;2024-02-23T07:42:56;4.80;;;1.70;;
64894;SDS011;51588;53.702;10.208;2024-02-23T07:45:23;3.27;;;1.20;;
64894;SDS011;51588;53.702;10.208;2024-02-23T07:47:55;3.23;;;1.30;;
64894;SDS011;51588;53.702;10.208;2024-02-23T07:50:21;3.77;;;1.30;;
64894;SDS011;51588;53.702;10.208;2024-02-23T07:52:48;5.40;;;1.40;;
64894;SDS011;51588;53.702;10.208;2024-02-23T07:55:18;4.30;;;1.20;;
64894;SDS011;51588;53.702;10.208;2024-02-23T07:57:44;5.40;;;1.30;;
64894;SDS011;51588;53.702;10.208;2024-02-23T08:00:11;3.30;;;1.50;;
64894;SDS011;51588;53.702;10.208;2024-02-23T08:02:38;1.53;;;1.10;;
64894;SDS011;51588;53.702;10.208;2024-02-23T08:05:07;2.60;;;1.27;;
64894;SDS011;51588;53.702;10.208;2024-02-23T08:07:33;2.50;;;1.07;;
64894;SDS011;51588;53.702;10.208;2024-02-23T08:10:03;2.90;;;1.30;;
64894;SDS011;51588;53.702;10.208;2024-02-23T08:12:30;2.80;;;1.27;;
64894;SDS011;51588;53.702;10.208;2024-02-23T08:14:56;6.23;;;1.20;;
64894;SDS011;51588;53.702;10.208;2024-02-23T08:17:23;4.27;;;1.50;;
64894;SDS011;51588;53.702;10.208;2024-02-23T08:19:50;2.20;;;1.20;;
64894;SDS011;51588;53.702;10.208;2024-02-23T08:22:21;3.77;;;1.30;;
64894;SDS011;51588;53.702;10.208;2024-02-23T08:24:54;3.57;;;1.20;;
64894;SDS011;51588;53.702;10.208;2024-02-23T08:27:21;1.60;;;0.90;;
64894;SDS011;51588;53.702;10.208;2024-02-23T08:29:50;2.00;;;1.17;;
64894;SDS011;51588;53.702;10.208;2024-02-23T08:32:17;2.27;;;1.13;;
64894;SDS011;51588;53.702;10.208;2024-02-23T08:34:58;4.13;;;1.10;;
64894;SDS011;51588;53.702;10.208;2024-02-23T08:37:26;2.10;;;1.13;;
64894;SDS011;51588;53.702;10.208;2024-02-23T08:39:53;2.73;;;1.10;;
64894;SDS011;51588;53.702;10.208;2024-02-23T08:42:20;3.50;;;1.10;;
64894;SDS011;51588;53.702;10.208;2024-02-23T08:44:52;1.50;;;1.17;;
64894;SDS011;51588;53.702;10.208;2024-02-23T08:47:20;2.67;;;1.23;;
64894;SDS011;51588;53.702;10.208;2024-02-23T08:49:46;2.40;;;1.27;;
64894;SDS011;51588;53.702;10.208;2024-02-23T08:52:13;1.53;;;0.90;;
64894;SDS011;51588;53.702;10.208;2024-02-23T08:54:41;4.67;;;1.17;;
64894;SDS011;51588;53.702;10.208;2024-02-23T08:57:11;1.73;;;1.00;;
64894;SDS011;51588;53.702;10.208;2024-02-23T08:59:40;2.57;;;0.90;;
64894;SDS011;51588;53.702;10.208;2024-02-23T09:02:10;2.83;;;1.30;;
64894;SDS011;51588;53.702;10.208;2024-02-23T09:04:36;2.67;;;1.00;;
64894;SDS011;51588;53.702;10.208;2024-02-23T09:07:03;3.87;;;1.20;;
64894;SDS011;51588;53.702;10.208;2024-02-23T09:09:30;4.33;;;1.00;;
64894;SDS011;51588;53.702;10.208;2024-02-23T09:11:58;2.80;;;1.10;;
64894;SDS011;51588;53.702;10.208;2024-02-23T09:14:25;3.20;;;0.93;;
64894;SDS011;51588;53.702;10.208;2024-02-23T09:16:52;2.60;;;1.03;;
64894;SDS011;51588;53.702;10.208;2024-02-23T09:19:19;1.80;;;0.97;;
64894;SDS011;51588;53.702;10.208;2024-02-23T09:21:45;2.10;;;1.10;;
64894;SDS011;51588;53.702;10.208;2024-02-23T09:24:12;2.33;;;1.13;;
64894;SDS011;51588;53.702;10.208;2024-02-23T09:26:39;2.63;;;1.00;;
64894;SDS011;51588;53.702;10.208;2024-02-23T09:29:10;3.20;;;1.20;;
64894;SDS011;51588;53.702;10.208;2024-02-23T09:31:37;1.67;;;0.93;;
64894;SDS011;51588;53.702;10.208;2024-02-23T09:34:03;2.73;;;1.13;;
64894;SDS011;51588;53.702;10.208;2024-02-23T09:36:30;1.63;;;1.00;;
64894;SDS011;51588;53.702;10.208;2024-02-23T09:38:59;1.10;;;0.90;;
64894;SDS011;51588;53.702;10.208;2024-02-23T09:41:27;6.30;;;1.20;;
64894;SDS011;51588;53.702;10.208;2024-02-23T09:43:53;3.23;;;1.10;;
64894;SDS011;51588;53.702;10.208;2024-02-23T09:46:26;3.43;;;1.10;;
64894;SDS011;51588;53.702;10.208;2024-02-23T09:48:53;1.50;;;1.00;;
64894;SDS011;51588;53.702;10.208;2024-02-23T09:51:25;1.60;;;1.10;;
64894;SDS011;51588;53.702;10.208;2024-02-23T09:53:52;1.83;;;1.17;;
64894;SDS011;51588;53.702;10.208;2024-02-23T09:56:25;2.17;;;1.10;;
64894;SDS011;51588;53.702;10.208;2024-02-23T09:58:57;4.40;;;1.13;;
64894;SDS011;51588;53.702;10.208;2024-02-23T10:01:29;2.63;;;0.90;;
64894;SDS011;51588;53.702;10.208;2024-02-23T10:04:00;1.20;;;1.00;;
64894;SDS011;51588;53.702;10.208;2024-02-23T10:06:29;2.70;;;1.10;;
64894;SDS011;51588;53.702;10.208;2024-02-23T10:08:56;1.20;;;0.90;;
64894;SDS011;51588;53.702;10.208;2024-02-23T10:11:24;2.17;;;1.30;;
64894;SDS011;51588;53.702;10.208;2024-02-23T10:13:51;2.23;;;1.23;;
64894;SDS011;51588;53.702;10.208;2024-02-23T10:16:18;2.73;;;1.03;;
64894;SDS011;51588;53.702;10.208;2024-02-23T10:18:52;2.00;;;1.03;;
64894;SDS011;51588;53.702;10.208;2024-02-23T10:21:21;2.47;;;0.90;;
64894;SDS011;51588;53.702;10.208;2024-02-23T10:23:50;1.50;;;1.10;;
64894;SDS011;51588;53.702;10.208;2024-02-23T10:26:20;2.67;;;1.00;;
64894;SDS011;51588;53.702;10.208;2024-02-23T10:28:48;2.20;;;1.00;;
64894;SDS011;51588;53.702;10.208;2024-02-23T10:31:16;2.53;;;1.17;;
64894;SDS011;51588;53.702;10.208;2024-02-23T10:33:43;1.90;;;0.97;;
64894;SDS011;51588;53.702;10.208;2024-02-23T10:36:14;2.67;;;0.90;;
64894;SDS011;51588;53.702;10.208;2024-02-23T10:38:42;1.33;;;1.00;;
64894;SDS011;51588;53.702;10.208;2024-02-23T10:41:12;2.60;;;1.30;;
64894;SDS011;51588;53.702;10.208;2024-02-23T10:43:40;2.37;;;1.30;;
64894;SDS011;51588;53.702;10.208;2024-02-23T10:46:09;2.20;;;0.90;;
64894;SDS011;51588;53.702;10.208;2024-02-23T10:48:39;2.13;;;1.00;;
64894;SDS011;51588;53.702;10.208;2024-02-23T10:51:06;2.90;;;1.03;;
64894;SDS011;51588;53.702;10.208;2024-02-23T10:53:39;1.43;;;1.17;;
64894;SDS011;51588;53.702;10.208;2024-02-23T10:56:06;1.50;;;0.90;;
64894;SDS011;51588;53.702;10.208;2024-02-23T10:58:33;1.70;;;0.87;;
64894;SDS011;51588;53.702;10.208;2024-02-23T11:01:06;1.40;;;0.90;;
64894;SDS011;51588;53.702;10.208;2024-02-23T11:03:41;1.80;;;1.03;;
64894;SDS011;51588;53.702;10.208;2024-02-23T11:06:13;1.50;;;0.83;;
64894;SDS011;51588;53.702;10.208;2024-02-23T11:08:45;1.37;;;1.00;;
64894;SDS011;51588;53.702;10.208;2024-02-23T11:11:12;1.93;;;0.93;;
64894;SDS011;51588;53.702;10.208;2024-02-23T11:13:45;6.47;;;5.00;;
64894;SDS011;51588;53.702;10.208;2024-02-23T11:16:22;37.20;;;21.43;;
64894;SDS011;51588;53.702;10.208;2024-02-23T11:19:00;52.90;;;19.73;;
64894;SDS011;51588;53.702;10.208;2024-02-23T11:21:33;38.63;;;16.40;;
64894;SDS011;51588;53.702;10.208;2024-02-23T11:24:14;33.90;;;14.87;;
64894;SDS011;51588;53.702;10.208;2024-02-23T11:26:42;42.43;;;14.63;;
64894;SDS011;51588;53.702;10.208;2024-02-23T11:29:11;84.07;;;33.50;;
64894;SDS011;51588;53.702;10.208;2024-02-23T11:31:46;54.30;;;23.47;;
64894;SDS011;51588;53.702;10.208;2024-02-23T11:34:13;68.60;;;23.33;;
64894;SDS011;51588;53.702;10.208;2024-02-23T11:36:50;64.80;;;23.87;;
64894;SDS011;51588;53.702;10.208;2024-02-23T11:39:25;72.07;;;25.43;;
64894;SDS011;51588;53.702;10.208;2024-02-23T11:41:52;91.83;;;34.90;;
64894;SDS011;51588;53.702;10.208;2024-02-23T11:44:19;121.27;;;44.27;;
64894;SDS011;51588;53.702;10.208;2024-02-23T11:46:46;120.53;;;42.20;;
64894;SDS011;51588;53.702;10.208;2024-02-23T11:49:13;104.37;;;41.83;;
64894;SDS011;51588;53.702;10.208;2024-02-23T11:51:40;99.43;;;39.53;;
64894;SDS011;51588;53.702;10.208;2024-02-23T11:54:09;93.30;;;37.53;;
64894;SDS011;51588;53.702;10.208;2024-02-23T11:56:37;88.37;;;34.13;;
64894;SDS011;51588;53.702;10.208;2024-02-23T11:59:05;75.63;;;31.70;;
64894;SDS011;51588;53.702;10.208;2024-02-23T12:01:32;73.87;;;29.50;;
64894;SDS011;51588;53.702;10.208;2024-02-23T12:04:01;58.90;;;26.10;;
64894;SDS011;51588;53.702;10.208;2024-02-23T12:06:28;69.73;;;26.83;;
64894;SDS011;51588;53.702;10.208;2024-02-23T12:08:57;55.63;;;23.10;;
64894;SDS011;51588;53.702;10.208;2024-02-23T12:11:24;56.87;;;23.83;;
64894;SDS011;51588;53.702;10.208;2024-02-23T12:14:04;56.93;;;23.47;;
64894;SDS011;51588;53.702;10.208;2024-02-23T12:16:35;54.53;;;21.00;;
64894;SDS011;51588;53.702;10.208;2024-02-23T12:19:02;48.73;;;20.60;;
64894;SDS011;51588;53.702;10.208;2024-02-23T12:21:29;46.40;;;18.33;;
64894;SDS011;51588;53.702;10.208;2024-02-23T12:23:55;45.70;;;18.63;;
64894;SDS011;51588;53.702;10.208;2024-02-23T12:26:22;48.33;;;17.20;;
64894;SDS011;51588;53.702;10.208;2024-02-23T12:28:49;42.23;;;16.83;;
64894;SDS011;51588;53.702;10.208;2024-02-23T12:31:17;44.10;;;16.00;;
64894;SDS011;51588;53.702;10.208;2024-02-23T12:33:49;40.30;;;15.30;;
64894;SDS011;51588;53.702;10.208;2024-02-23T12:36:16;36.90;;;15.27;;
64894;SDS011;51588;53.702;10.208;2024-02-23T12:38:43;44.43;;;15.03;;
64894;SDS011;51588;53.702;10.208;2024-02-23T12:41:10;35.27;;;13.87;;
64894;SDS011;51588;53.702;10.208;2024-02-23T12:43:40;38.30;;;12.73;;
64894;SDS011;51588;53.702;10.208;2024-02-23T12:46:07;30.73;;;12.20;;
64894;SDS011;51588;53.702;10.208;2024-02-23T12:48:35;33.50;;;13.60;;
64894;SDS011;51588;53.702;10.208;2024-02-23T12:51:02;37.93;;;12.13;;
64894;SDS011;51588;53.702;10.208;2024-02-23T12:53:35;30.93;;;11.03;;
64894;SDS011;51588;53.702;10.208;2024-02-23T12:56:03;28.13;;;10.57;;
64894;SDS011;51588;53.702;10.208;2024-02-23T12:58:30;30.60;;;11.33;;
64894;SDS011;51588;53.702;10.208;2024-02-23T13:00:57;26.37;;;10.30;;
64894;SDS011;51588;53.702;10.208;2024-02-23T13:03:26;27.07;;;9.90;;
64894;SDS011;51588;53.702;10.208;2024-02-23T13:05:55;25.37;;;9.80;;
64894;SDS011;51588;53.702;10.208;2024-02-23T13:08:22;28.80;;;8.87;;
64894;SDS011;51588;53.702;10.208;2024-02-23T13:10:52;25.40;;;9.70;;
64894;SDS011;51588;53.702;10.208;2024-02-23T13:13:23;23.00;;;8.37;;
64894;SDS011;51588;53.702;10.208;2024-02-23T13:15:59;26.23;;;9.30;;
64894;SDS011;51588;53.702;10.208;2024-02-23T13:18:30;23.80;;;7.97;;
64894;SDS011;51588;53.702;10.208;2024-02-23T13:20:58;23.77;;;8.23;;
64894;SDS011;51588;53.702;10.208;2024-02-23T13:23:24;16.67;;;6.77;;
64894;SDS011;51588;53.702;10.208;2024-02-23T13:25:51;19.27;;;6.80;;
64894;SDS011;51588;53.702;10.208;2024-02-23T13:28:17;17.93;;;6.40;;
64894;SDS011;51588;53.702;10.208;2024-02-23T13:30:46;17.03;;;5.93;;
64894;SDS011;51588;53.702;10.208;2024-02-23T13:33:13;15.30;;;5.80;;
64894;SDS011;51588;53.702;10.208;2024-02-23T13:35:41;13.40;;;5.57;;
64894;SDS011;51588;53.702;10.208;2024-02-23T13:38:11;11.40;;;5.17;;
64894;SDS011;51588;53.702;10.208;2024-02-23T13:40:38;14.83;;;5.33;;
64894;SDS011;51588;53.702;10.208;2024-02-23T13:43:07;10.10;;;5.07;;
64894;SDS011;51588;53.702;10.208;2024-02-23T13:45:47;14.57;;;5.10;;
64894;SDS011;51588;53.702;10.208;2024-02-23T13:48:15;11.80;;;5.10;;
64894;SDS011;51588;53.702;10.208;2024-02-23T13:50:43;11.90;;;4.50;;
64894;SDS011;51588;53.702;10.208;2024-02-23T13:53:11;12.60;;;4.90;;
64894;SDS011;51588;53.702;10.208;2024-02-23T13:55:38;9.87;;;4.20;;
64894;SDS011;51588;53.702;10.208;2024-02-23T13:58:05;15.43;;;4.53;;
64894;SDS011;51588;53.702;10.208;2024-02-23T14:00:31;11.23;;;4.50;;
64894;SDS011;51588;53.702;10.208;2024-02-23T14:03:00;10.67;;;4.07;;
64894;SDS011;51588;53.702;10.208;2024-02-23T14:05:29;12.00;;;4.43;;
64894;SDS011;51588;53.702;10.208;2024-02-23T14:07:56;13.30;;;4.37;;
64894;SDS011;51588;53.702;10.208;2024-02-23T14:10:24;14.43;;;4.37;;
64894;SDS011;51588;53.702;10.208;2024-02-23T14:12:50;9.20;;;3.97;;
64894;SDS011;51588;53.702;10.208;2024-02-23T14:15:17;9.90;;;4.30;;
64894;SDS011;51588;53.702;10.208;2024-02-23T14:17:46;16.23;;;4.70;;
64894;SDS011;51588;53.702;10.208;2024-02-23T14:20:17;12.60;;;3.77;;
64894;SDS011;51588;53.702;10.208;2024-02-23T14:22:44;10.00;;;3.80;;
64894;SDS011;51588;53.702;10.208;2024-02-23T14:25:11;8.77;;;3.87;;
64894;SDS011;51588;53.702;10.208;2024-02-23T14:27:41;8.70;;;3.63;;
64894;SDS011;51588;53.702;10.208;2024-02-23T14:30:08;11.63;;;3.77;;
64894;SDS011;51588;53.702;10.208;2024-02-23T14:32:35;10.23;;;4.00;;
64894;SDS011;51588;53.702;10.208;2024-02-23T14:35:02;10.33;;;4.07;;
64894;SDS011;51588;53.702;10.208;2024-02-23T14:37:29;7.37;;;3.53;;